Terminal Aerodrome Forecast
Issued by NWS

Home | Current Version | Previous Version | Text Only | Print | Product List | Glossary On
Versions: 1 2 3 4 5 6 7 8 9 10 11 12 13 14 15 16 17
000
FTUS42 KTBW 280500
TAFLAL
TAF
KLAL 280537Z 2806/2906 11004KT P6SM FEW050 SCT070
     FM282000 14006KT P6SM VCTS SCT035CB BKN070
     FM290100 VRB04KT P6SM SCT070 BKN250
      AMD NOT SKED TIL 281200=

USA.gov is the U.S. government's official web portal to all federal, state and local government web resources and services.